createdAt,value
2022-10-05T00:01:48.198Z,12.30
2022-10-05T00:04:18.539Z,9.27
2022-10-05T00:06:57.091Z,10.77
2022-10-05T00:09:23.502Z,11.43
2022-10-05T00:11:50.927Z,11.33
2022-10-05T00:14:27.650Z,9.80
2022-10-05T00:16:54.932Z,8.20
2022-10-05T00:19:27.207Z,11.77
2022-10-05T00:21:58.549Z,10.43
2022-10-05T00:24:24.879Z,8.97
2022-10-05T00:26:55.544Z,12.77
2022-10-05T00:29:24.258Z,8.30
2022-10-05T00:31:50.708Z,7.97
2022-10-05T00:34:17.878Z,8.30
2022-10-05T00:36:45.454Z,7.40
2022-10-05T00:39:12.016Z,12.57
2022-10-05T00:42:03.004Z,8.40
2022-10-05T00:44:54.325Z,8.00
2022-10-05T00:47:48.450Z,11.37
2022-10-05T00:50:59.582Z,13.73
2022-10-05T00:53:57.953Z,11.80
2022-10-05T00:56:53.716Z,7.93
2022-10-05T00:59:44.304Z,9.93
2022-10-05T01:02:36.726Z,8.47
2022-10-05T01:05:06.564Z,8.07
2022-10-05T01:07:48.747Z,8.47
2022-10-05T01:10:32.752Z,10.30
2022-10-05T01:13:12.197Z,9.60
2022-10-05T01:15:55.470Z,8.93
2022-10-05T01:18:33.103Z,8.00
2022-10-05T01:21:19.422Z,13.43
2022-10-05T01:24:16.947Z,10.20
2022-10-05T01:27:01.735Z,9.90
2022-10-05T01:30:06.237Z,9.10
2022-10-05T01:32:50.232Z,12.47
2022-10-05T01:35:32.516Z,8.50
2022-10-05T01:38:04.589Z,9.17
2022-10-05T01:40:37.142Z,9.37
2022-10-05T01:43:25.032Z,9.50
2022-10-05T01:46:06.129Z,8.57
2022-10-05T01:48:44.176Z,9.33
2022-10-05T01:51:22.126Z,8.60
2022-10-05T01:54:10.236Z,9.93
2022-10-05T01:57:04.977Z,9.50
2022-10-05T01:59:40.429Z,8.60
2022-10-05T02:02:11.750Z,11.00
2022-10-05T02:05:03.486Z,9.80
2022-10-05T02:08:08.158Z,7.70
2022-10-05T02:10:42.634Z,8.13
2022-10-05T02:13:29.650Z,8.13
2022-10-05T02:16:14.287Z,9.03
2022-10-05T02:18:50.282Z,7.90
2022-10-05T02:21:17.263Z,8.77
2022-10-05T02:23:46.200Z,10.07
2022-10-05T02:26:13.660Z,8.43
2022-10-05T02:28:46.541Z,8.47
2022-10-05T02:31:17.860Z,9.97
2022-10-05T02:33:44.188Z,11.10
2022-10-05T02:36:12.394Z,9.60
2022-10-05T02:38:53.557Z,8.63
2022-10-05T02:41:38.177Z,9.50
2022-10-05T02:44:22.178Z,11.67
2022-10-05T02:46:57.124Z,10.40
2022-10-05T02:49:40.066Z,9.90
2022-10-05T02:52:23.107Z,9.27
2022-10-05T02:55:02.069Z,10.90
2022-10-05T02:57:34.133Z,10.43
2022-10-05T03:00:09.339Z,9.47
2022-10-05T03:02:49.753Z,9.40
2022-10-05T03:05:25.304Z,9.97
2022-10-05T03:08:08.663Z,9.23
2022-10-05T03:10:53.697Z,9.70
2022-10-05T03:13:19.964Z,12.20
2022-10-05T03:15:55.073Z,10.97
2022-10-05T03:18:36.653Z,10.00
2022-10-05T03:21:28.015Z,11.20
2022-10-05T03:24:05.187Z,13.80
2022-10-05T03:26:58.677Z,12.23
2022-10-05T03:29:47.434Z,11.83
2022-10-05T03:32:22.960Z,11.60
2022-10-05T03:35:15.584Z,10.03
2022-10-05T03:37:56.586Z,19.83
2022-10-05T03:40:43.118Z,11.97
2022-10-05T03:43:34.395Z,9.40
2022-10-05T03:46:42.388Z,12.03
2022-10-05T03:49:28.298Z,13.27
2022-10-05T03:52:24.364Z,17.83
2022-10-05T03:54:59.628Z,15.77
2022-10-05T03:57:29.504Z,11.80
2022-10-05T04:00:04.803Z,12.40
2022-10-05T04:02:37.046Z,13.80
2022-10-05T04:05:09.991Z,10.70
2022-10-05T04:07:47.441Z,12.70
2022-10-05T04:10:24.234Z,16.10
2022-10-05T04:13:18.389Z,18.87
2022-10-05T04:16:01.660Z,14.50
2022-10-05T04:18:38.182Z,13.70
2022-10-05T04:21:12.477Z,13.47
2022-10-05T04:24:06.412Z,14.73
2022-10-05T04:26:41.747Z,14.80
2022-10-05T04:29:34.911Z,16.40
2022-10-05T04:32:30.291Z,13.83
2022-10-05T04:35:30.295Z,14.57
2022-10-05T04:38:26.398Z,14.40
2022-10-05T04:41:17.710Z,15.20
2022-10-05T04:44:14.612Z,14.73
2022-10-05T04:47:03.235Z,16.23
2022-10-05T04:49:55.297Z,18.70
2022-10-05T04:52:36.989Z,15.03
2022-10-05T04:55:31.660Z,12.27
2022-10-05T04:58:22.521Z,12.57
2022-10-05T05:01:04.385Z,12.30
2022-10-05T05:03:48.089Z,14.20
2022-10-05T05:06:32.944Z,15.17
2022-10-05T05:09:22.845Z,14.30
2022-10-05T05:12:03.974Z,14.27
2022-10-05T05:14:52.014Z,12.93
2022-10-05T05:17:37.142Z,13.07
2022-10-05T05:20:39.106Z,14.83
2022-10-05T05:23:27.472Z,11.30
2022-10-05T05:26:23.738Z,13.63
2022-10-05T05:29:17.013Z,13.40
2022-10-05T05:31:50.306Z,13.30
2022-10-05T05:35:05.739Z,14.30
2022-10-05T05:37:43.327Z,11.53
2022-10-05T05:40:19.666Z,15.67
2022-10-05T05:42:58.710Z,19.27
2022-10-05T05:45:54.227Z,15.27
2022-10-05T05:48:43.378Z,14.60
2022-10-05T05:51:15.857Z,15.10
2022-10-05T05:53:49.323Z,13.00
2022-10-05T05:56:34.518Z,14.40
2022-10-05T05:59:10.868Z,14.63
2022-10-05T06:01:55.076Z,13.63
2022-10-05T06:04:27.006Z,15.40
2022-10-05T06:06:56.009Z,14.13
2022-10-05T06:09:28.204Z,26.63
2022-10-05T06:12:01.947Z,16.33
2022-10-05T06:14:44.677Z,14.27
2022-10-05T06:17:20.616Z,13.70
2022-10-05T06:19:48.569Z,14.77
2022-10-05T06:22:34.101Z,19.93
2022-10-05T06:25:12.604Z,12.57
2022-10-05T06:28:02.721Z,12.27
2022-10-05T06:30:44.793Z,11.13
2022-10-05T06:33:25.200Z,15.83
2022-10-05T06:36:18.277Z,9.73
2022-10-05T06:39:13.945Z,13.87
2022-10-05T06:41:43.473Z,10.80
2022-10-05T06:44:12.289Z,14.47
2022-10-05T06:47:02.217Z,10.87
2022-10-05T06:49:30.770Z,10.43
2022-10-05T06:52:27.954Z,13.37
2022-10-05T06:55:23.108Z,12.77
2022-10-05T06:58:40.737Z,11.37
2022-10-05T07:01:18.243Z,10.50
2022-10-05T07:03:53.501Z,11.33
2022-10-05T07:06:35.372Z,9.23
2022-10-05T07:09:17.937Z,14.07
2022-10-05T07:11:59.741Z,9.37
2022-10-05T07:15:03.549Z,9.37
2022-10-05T07:17:52.562Z,13.37
2022-10-05T07:20:32.478Z,9.37
2022-10-05T07:23:29.794Z,8.67
2022-10-05T07:26:10.272Z,11.50
2022-10-05T07:28:52.348Z,12.87
2022-10-05T07:31:40.604Z,13.23
2022-10-05T07:34:12.618Z,9.23
2022-10-05T07:37:09.671Z,10.10
2022-10-05T07:40:06.807Z,11.17
2022-10-05T07:42:48.811Z,11.60
2022-10-05T07:45:28.048Z,8.40
2022-10-05T07:47:57.664Z,10.10
2022-10-05T07:50:31.058Z,9.97
2022-10-05T07:53:02.693Z,9.33
2022-10-05T07:55:37.905Z,11.47
2022-10-05T07:58:28.782Z,8.70
2022-10-05T08:01:07.990Z,7.63
2022-10-05T08:03:55.468Z,7.73
2022-10-05T08:06:47.457Z,8.30
2022-10-05T08:09:30.675Z,8.80
2022-10-05T08:11:56.944Z,7.80
2022-10-05T08:14:51.202Z,7.77
2022-10-05T08:17:26.410Z,11.97
2022-10-05T08:20:05.694Z,8.63
2022-10-05T08:22:40.855Z,8.17
2022-10-05T08:25:19.081Z,8.37
2022-10-05T08:27:50.453Z,7.20
2022-10-05T08:30:17.123Z,8.33
2022-10-05T08:32:54.960Z,8.97
2022-10-05T08:35:38.011Z,8.60
2022-10-05T08:38:33.660Z,12.30
2022-10-05T08:41:29.158Z,7.47
2022-10-05T08:44:12.550Z,7.40
2022-10-05T08:47:27.927Z,8.37
2022-10-05T08:50:13.178Z,8.83
2022-10-05T08:53:18.033Z,7.00
2022-10-05T08:56:03.293Z,7.60
2022-10-05T08:58:51.521Z,6.63
2022-10-05T09:01:30.820Z,7.97
2022-10-05T09:04:09.230Z,8.10
2022-10-05T09:06:53.940Z,9.10
2022-10-05T09:10:02.580Z,9.73
2022-10-05T09:13:19.814Z,11.73
2022-10-05T09:15:54.992Z,8.10
2022-10-05T09:18:53.697Z,6.30
2022-10-05T09:21:25.783Z,10.23
2022-10-05T09:24:21.587Z,8.40
2022-10-05T09:27:15.222Z,6.83
2022-10-05T09:30:09.105Z,7.20
2022-10-05T09:33:17.123Z,5.83
2022-10-05T09:36:20.720Z,5.23
2022-10-05T09:39:24.390Z,5.90
2022-10-05T09:42:18.564Z,5.50
2022-10-05T09:45:03.313Z,6.20
2022-10-05T09:47:52.964Z,6.10
2022-10-05T09:50:37.666Z,5.50
2022-10-05T09:53:32.813Z,6.57
2022-10-05T09:56:20.186Z,6.03
2022-10-05T09:59:22.769Z,5.23
2022-10-05T10:02:16.743Z,4.13
2022-10-05T10:05:08.211Z,5.07
2022-10-05T10:07:56.073Z,5.67
2022-10-05T10:11:04.149Z,4.80
2022-10-05T10:13:53.669Z,4.83
2022-10-05T10:16:29.217Z,4.87
2022-10-05T10:19:01.626Z,7.77
2022-10-05T10:21:43.277Z,5.00
2022-10-05T10:24:21.340Z,9.73
2022-10-05T10:27:01.627Z,4.73
2022-10-05T10:29:40.115Z,4.50
2022-10-05T10:32:21.784Z,4.83
2022-10-05T10:35:09.609Z,5.30
2022-10-05T10:37:59.024Z,5.37
2022-10-05T10:40:42.360Z,6.63
2022-10-05T10:44:02.511Z,6.20
2022-10-05T10:46:44.931Z,4.40
2022-10-05T10:49:39.304Z,5.33
2022-10-05T10:52:20.256Z,3.73
2022-10-05T10:55:10.430Z,3.80
2022-10-05T10:57:55.781Z,6.23
2022-10-05T11:00:24.685Z,6.77
2022-10-05T11:03:08.397Z,3.57
2022-10-05T11:05:58.984Z,5.10
2022-10-05T11:08:40.879Z,5.00
2022-10-05T11:11:27.074Z,4.37
2022-10-05T11:14:03.113Z,3.50
2022-10-05T11:16:53.433Z,4.80
2022-10-05T11:20:02.463Z,5.07
2022-10-05T11:22:50.660Z,3.83
2022-10-05T11:25:46.840Z,4.33
2022-10-05T11:28:37.752Z,4.17
2022-10-05T11:31:40.251Z,4.30
2022-10-05T11:34:39.005Z,4.40
2022-10-05T11:37:48.583Z,4.20
2022-10-05T11:40:44.500Z,3.77
2022-10-05T11:43:13.586Z,4.20
2022-10-05T11:45:48.189Z,4.23
2022-10-05T11:48:45.226Z,4.80
2022-10-05T11:51:11.975Z,5.63
2022-10-05T11:53:57.473Z,3.47
2022-10-05T11:59:26.411Z,3.67
2022-10-05T12:02:01.466Z,3.70
2022-10-05T12:04:58.011Z,4.30
2022-10-05T12:07:46.269Z,4.53
2022-10-05T12:10:40.622Z,3.83
2022-10-05T12:13:31.102Z,2.77
2022-10-05T12:16:04.184Z,3.27
2022-10-05T12:18:31.009Z,4.83
2022-10-05T12:21:01.957Z,2.60
2022-10-05T12:23:37.072Z,2.60
2022-10-05T12:26:15.061Z,2.83
2022-10-05T12:28:47.076Z,2.73
2022-10-05T12:31:22.943Z,2.60
2022-10-05T12:33:57.519Z,2.97
2022-10-05T12:36:46.235Z,2.87
2022-10-05T12:39:21.245Z,2.70
2022-10-05T12:42:03.173Z,3.30
2022-10-05T12:45:00.630Z,3.23
2022-10-05T12:47:42.155Z,3.13
2022-10-05T12:50:14.476Z,7.17
2022-10-05T12:52:59.137Z,3.43
2022-10-05T12:55:35.816Z,2.47
2022-10-05T12:58:26.358Z,4.13
2022-10-05T13:01:08.320Z,2.70
2022-10-05T13:03:39.842Z,3.10
2022-10-05T13:06:45.866Z,2.77
2022-10-05T13:09:28.600Z,3.13
2022-10-05T13:12:05.990Z,6.80
2022-10-05T13:14:55.883Z,4.00
2022-10-05T13:17:38.869Z,3.40
2022-10-05T13:20:16.555Z,5.60
2022-10-05T13:22:50.633Z,4.10
2022-10-05T13:25:23.491Z,3.53
2022-10-05T13:28:08.632Z,3.40
2022-10-05T13:30:36.680Z,3.33
2022-10-05T13:33:35.212Z,4.50
2022-10-05T13:36:10.926Z,5.70
2022-10-05T13:39:03.424Z,3.30
2022-10-05T13:41:48.461Z,3.50
2022-10-05T13:44:34.000Z,5.03
2022-10-05T13:47:02.044Z,3.07
2022-10-05T13:49:38.632Z,5.73
2022-10-05T13:52:08.681Z,3.50
2022-10-05T13:54:53.869Z,3.60
2022-10-05T13:57:45.052Z,4.33
2022-10-05T14:00:22.616Z,2.80
2022-10-05T14:02:56.227Z,7.93
2022-10-05T14:05:25.217Z,3.37
2022-10-05T14:07:55.587Z,5.90
2022-10-05T14:10:34.030Z,4.50
2022-10-05T14:13:09.127Z,3.40
2022-10-05T14:15:41.260Z,3.97
2022-10-05T14:18:27.326Z,5.80
2022-10-05T14:21:03.078Z,4.33
2022-10-05T14:23:30.016Z,4.30
2022-10-05T14:25:56.533Z,3.80
2022-10-05T14:28:31.245Z,3.87
2022-10-05T14:31:31.424Z,3.87
2022-10-05T14:34:25.404Z,5.90
2022-10-05T14:37:00.623Z,9.17
2022-10-05T14:39:28.510Z,6.00
2022-10-05T14:41:54.957Z,3.60
2022-10-05T14:44:24.404Z,4.00
2022-10-05T14:46:58.672Z,17.07
2022-10-05T14:49:38.150Z,7.83
2022-10-05T14:52:33.037Z,9.90
2022-10-05T14:55:08.371Z,4.63
2022-10-05T14:57:56.225Z,3.30
2022-10-05T15:00:24.204Z,4.00
2022-10-05T15:02:56.546Z,9.60
2022-10-05T15:05:39.117Z,4.13
2022-10-05T15:08:21.841Z,3.90
2022-10-05T15:10:56.500Z,6.63
2022-10-05T15:13:29.224Z,13.70
2022-10-05T15:16:03.118Z,5.03
2022-10-05T15:18:42.920Z,4.43
2022-10-05T15:21:44.993Z,4.03
2022-10-05T15:24:43.496Z,3.83
2022-10-05T15:27:26.113Z,4.00
2022-10-05T15:29:55.585Z,8.30
2022-10-05T15:32:42.109Z,4.23
2022-10-05T15:35:27.349Z,5.00
2022-10-05T15:37:59.977Z,3.63
2022-10-05T15:40:49.463Z,4.70
2022-10-05T15:43:23.304Z,7.53
2022-10-05T15:46:02.851Z,3.70
2022-10-05T15:48:43.709Z,10.47
2022-10-05T15:51:25.233Z,9.53
2022-10-05T15:54:30.823Z,3.50
2022-10-05T15:57:10.734Z,5.33
2022-10-05T15:59:52.320Z,3.77
2022-10-05T16:02:25.887Z,7.83
2022-10-05T16:05:07.596Z,4.03
2022-10-05T16:08:02.318Z,5.10
2022-10-05T16:10:33.926Z,5.10
2022-10-05T16:13:15.970Z,6.10
2022-10-05T16:15:55.382Z,6.73
2022-10-05T16:19:16.061Z,6.70
2022-10-05T16:22:02.486Z,8.13
2022-10-05T16:24:51.494Z,5.43
2022-10-05T16:27:30.368Z,7.20
2022-10-05T16:30:08.967Z,9.47
2022-10-05T16:32:52.881Z,13.10
2022-10-05T16:35:50.908Z,6.40
2022-10-05T16:38:26.170Z,6.20
2022-10-05T16:40:59.673Z,5.90
2022-10-05T16:43:44.849Z,5.20
2022-10-05T16:46:29.490Z,5.10
2022-10-05T16:49:02.155Z,4.50
2022-10-05T16:51:51.157Z,6.00
2022-10-05T16:54:27.306Z,6.03
2022-10-05T16:57:17.811Z,5.77
2022-10-05T17:00:03.617Z,4.73
2022-10-05T17:03:01.147Z,5.40
2022-10-05T17:06:03.903Z,5.10
2022-10-05T17:08:58.714Z,4.50
2022-10-05T17:11:46.585Z,7.07
2022-10-05T17:14:40.194Z,6.50
2022-10-05T17:17:25.252Z,7.73
2022-10-05T17:20:17.372Z,7.23
2022-10-05T17:23:02.044Z,5.37
2022-10-05T17:25:41.498Z,5.67
2022-10-05T17:28:36.524Z,5.83
2022-10-05T17:31:02.939Z,4.47
2022-10-05T17:33:33.834Z,4.50
2022-10-05T17:36:04.509Z,5.23
2022-10-05T17:38:30.778Z,8.90
2022-10-05T17:40:59.942Z,5.10
2022-10-05T17:43:27.281Z,3.90
2022-10-05T17:45:58.138Z,4.97
2022-10-05T17:48:49.402Z,9.10
2022-10-05T17:52:03.710Z,4.13
2022-10-05T17:55:29.272Z,4.60
2022-10-05T17:57:59.517Z,7.03
2022-10-05T18:00:25.790Z,4.73
2022-10-05T18:02:56.367Z,5.00
2022-10-05T18:05:28.202Z,3.93
2022-10-05T18:08:12.918Z,5.33
2022-10-05T18:11:10.830Z,5.93
2022-10-05T18:13:43.755Z,8.40
2022-10-05T18:16:10.361Z,5.20
2022-10-05T18:18:42.878Z,5.10
2022-10-05T18:21:15.269Z,4.97
2022-10-05T18:24:00.037Z,5.17
2022-10-05T18:26:36.797Z,6.90
2022-10-05T18:29:46.557Z,5.53
2022-10-05T18:32:49.685Z,4.53
2022-10-05T18:35:25.301Z,4.50
2022-10-05T18:38:29.067Z,5.83
2022-10-05T18:41:03.372Z,6.30
2022-10-05T18:43:56.013Z,6.97
2022-10-05T18:46:46.764Z,5.27
2022-10-05T18:49:37.968Z,4.60
2022-10-05T18:52:17.902Z,4.43
2022-10-05T18:55:15.410Z,4.20
2022-10-05T18:58:09.286Z,6.97
2022-10-05T19:00:56.508Z,4.43
2022-10-05T19:03:34.265Z,11.60
2022-10-05T19:06:28.220Z,5.70
2022-10-05T19:09:19.130Z,5.47
2022-10-05T19:11:45.408Z,12.50
2022-10-05T19:14:30.547Z,4.60
2022-10-05T19:17:20.638Z,8.83
2022-10-05T19:20:05.878Z,6.50
2022-10-05T19:22:50.773Z,6.33
2022-10-05T19:25:36.525Z,4.00
2022-10-05T19:28:17.072Z,4.90
2022-10-05T19:30:56.762Z,4.50
2022-10-05T19:33:52.526Z,3.97
2022-10-05T19:36:32.303Z,4.93
2022-10-05T19:39:10.231Z,5.30
2022-10-05T19:41:52.275Z,6.77
2022-10-05T19:44:27.786Z,8.30
2022-10-05T19:47:04.838Z,5.63
2022-10-05T19:49:49.433Z,6.00
2022-10-05T19:52:40.930Z,5.10
2022-10-05T19:55:15.778Z,5.53
2022-10-05T19:57:50.210Z,6.37
2022-10-05T20:00:22.385Z,5.20
2022-10-05T20:02:50.688Z,4.83
2022-10-05T20:05:18.198Z,5.20
2022-10-05T20:07:44.546Z,5.43
2022-10-05T20:10:19.868Z,6.47
2022-10-05T20:12:52.029Z,4.47
2022-10-05T20:15:39.440Z,7.70
2022-10-05T20:19:01.439Z,9.13
2022-10-05T20:21:46.469Z,4.70
2022-10-05T20:24:18.793Z,4.37
2022-10-05T20:27:06.514Z,4.87
2022-10-05T20:29:38.169Z,5.80
2022-10-05T20:32:08.682Z,6.67
2022-10-05T20:34:36.669Z,5.60
2022-10-05T20:37:03.373Z,4.13
2022-10-05T20:39:31.152Z,6.53
2022-10-05T20:41:58.550Z,4.70
2022-10-05T20:44:25.974Z,6.30
2022-10-05T20:46:55.127Z,4.80
2022-10-05T20:49:23.573Z,4.70
2022-10-05T20:51:49.980Z,5.73
2022-10-05T20:54:18.622Z,5.47
2022-10-05T20:56:46.001Z,4.33
2022-10-05T20:59:13.621Z,6.90
2022-10-05T21:01:45.253Z,5.93
2022-10-05T21:04:11.610Z,6.80
2022-10-05T21:06:37.897Z,4.67
2022-10-05T21:09:04.605Z,9.97
2022-10-05T21:11:30.910Z,4.10
2022-10-05T21:13:58.454Z,5.87
2022-10-05T21:16:26.831Z,3.80
2022-10-05T21:18:53.549Z,5.20
2022-10-05T21:21:19.905Z,7.50
2022-10-05T21:23:47.705Z,4.40
2022-10-05T21:26:15.099Z,4.10
2022-10-05T21:28:41.657Z,4.20
2022-10-05T21:31:08.920Z,5.30
2022-10-05T21:33:36.253Z,3.77
2022-10-05T21:36:02.893Z,5.27
2022-10-05T21:38:29.751Z,6.60
2022-10-05T21:40:56.280Z,4.33
2022-10-05T21:43:22.624Z,7.63
2022-10-05T21:45:49.293Z,4.83
2022-10-05T21:48:17.429Z,4.93
2022-10-05T21:50:44.764Z,5.77
2022-10-05T21:53:14.255Z,4.80
2022-10-05T21:55:43.034Z,7.33
2022-10-05T21:58:12.009Z,3.97
2022-10-05T22:00:38.434Z,6.03
2022-10-05T22:03:04.827Z,5.30
2022-10-05T22:05:32.420Z,4.93
2022-10-05T22:07:58.791Z,7.40
2022-10-05T22:10:25.345Z,6.50
2022-10-05T22:12:51.705Z,8.00
2022-10-05T22:15:18.229Z,4.17
2022-10-05T22:17:46.014Z,6.30
2022-10-05T22:20:13.920Z,7.33
2022-10-05T22:22:40.269Z,7.90
2022-10-05T22:25:07.037Z,5.37
2022-10-05T22:27:33.993Z,4.30
2022-10-05T22:30:01.002Z,3.30
2022-10-05T22:32:27.454Z,6.97
2022-10-05T22:34:53.762Z,4.90
2022-10-05T22:37:20.080Z,2.43
2022-10-05T22:39:46.482Z,2.50
2022-10-05T22:42:12.893Z,6.00
2022-10-05T22:44:40.164Z,2.90
2022-10-05T22:47:06.448Z,6.13
2022-10-05T22:49:32.761Z,5.53
2022-10-05T22:51:59.184Z,4.67
2022-10-05T22:54:29.424Z,3.57
2022-10-05T22:56:56.884Z,4.03
2022-10-05T22:59:23.240Z,3.00
2022-10-05T23:01:49.564Z,8.13
2022-10-05T23:04:15.888Z,3.93
2022-10-05T23:06:42.688Z,8.37
2022-10-05T23:09:08.989Z,5.20
2022-10-05T23:11:35.417Z,7.87
2022-10-05T23:14:01.777Z,6.77
2022-10-05T23:16:28.741Z,3.97
2022-10-05T23:18:55.917Z,6.43
2022-10-05T23:21:23.978Z,3.77
2022-10-05T23:23:53.225Z,6.40
2022-10-05T23:26:22.006Z,8.20
2022-10-05T23:28:49.018Z,7.40
2022-10-05T23:31:17.903Z,3.03
2022-10-05T23:33:44.580Z,8.77
2022-10-05T23:36:16.908Z,4.07
2022-10-05T23:38:43.830Z,3.90
2022-10-05T23:41:10.610Z,4.03
2022-10-05T23:43:37.229Z,5.33
2022-10-05T23:46:06.284Z,4.73
2022-10-05T23:48:33.346Z,3.20
2022-10-05T23:51:00.210Z,4.13
2022-10-05T23:53:26.652Z,5.80
2022-10-05T23:55:53.998Z,3.37
2022-10-05T23:58:21.510Z,2.50
